Time;durP1;ratioP1;P1;durP2;ratioP2;P2;SDS_P1;SDS_P2;PMS_P1;PMS_P2;Temp;Humidity;BMP_temperature;BMP_pressure;BME280_temperature;BME280_humidity;BME280_pressure;Samples;Min_cycle;Max_cycle;Signal;HPM_P1;HPM_P2
2023/08/17 19:31:46;;;;;;;9.32;6.53;;;;;;;;;;6152113;22;1335116;-84
2023/08/17 19:34:12;;;;;;;10.32;7.15;;;;;;;;;;6124746;23;20129;-84
2023/08/17 19:36:38;;;;;;;9.90;6.63;;;;;;;;;;6126754;23;20089;-84
2023/08/17 19:39:04;;;;;;;10.10;6.70;;;;;;;;;;6126528;23;20018;-84
2023/08/17 19:41:31;;;;;;;9.02;7.20;;;;;;;;;;6126299;23;20416;-84
2023/08/17 19:43:57;;;;;;;10.40;6.65;;;;;;;;;;6107663;23;20019;-84
2023/08/17 19:46:23;;;;;;;10.82;7.15;;;;;;;;;;6096059;23;20109;-84
2023/08/17 19:48:49;;;;;;;9.85;7.43;;;;;;;;;;6095390;23;20018;-84
2023/08/17 19:51:16;;;;;;;9.43;6.93;;;;;;;;;;6070999;23;20105;-84
2023/08/17 19:53:42;;;;;;;8.90;7.45;;;;;;;;;;6096544;23;20049;-84
2023/08/17 19:56:09;;;;;;;10.18;6.90;;;;;;;;;;6097488;23;20022;-84
2023/08/17 19:58:35;;;;;;;9.05;7.50;;;;;;;;;;6094987;23;20447;-84
2023/08/17 20:01:06;;;;;;;8.32;7.40;;;;;;;;;;6096819;23;20455;-84
2023/08/17 20:03:33;;;;;;;8.93;7.13;;;;;;;;;;6097409;23;20030;-84
2023/08/17 20:06:00;;;;;;;9.68;7.40;;;;;;;;;;6095279;23;20030;-84
2023/08/17 20:08:26;;;;;;;8.88;7.20;;;;;;;;;;6095172;23;20405;-84
2023/08/17 20:10:52;;;;;;;8.73;7.55;;;;;;;;;;6095341;23;20027;-84
2023/08/17 20:13:18;;;;;;;8.25;6.75;;;;;;;;;;6096755;23;20483;-84
2023/08/17 20:15:44;;;;;;;7.97;7.03;;;;;;;;;;6095019;23;20023;-83
2023/08/17 20:18:13;;;;;;;8.77;7.22;;;;;;;;;;6095467;23;20134;-84
2023/08/17 20:20:55;;;;;;;8.70;7.13;;;;;;;;;;6097331;23;20057;-84
2023/08/17 20:23:22;;;;;;;9.48;6.93;;;;;;;;;;6071698;23;20118;-84
2023/08/17 20:25:49;;;;;;;8.25;7.10;;;;;;;;;;6094914;23;20018;-84
2023/08/17 20:28:15;;;;;;;9.70;6.75;;;;;;;;;;6097131;23;20073;-84
2023/08/17 20:30:42;;;;;;;7.25;6.55;;;;;;;;;;6095170;23;20029;-84
2023/08/17 20:33:09;;;;;;;9.20;6.88;;;;;;;;;;6094821;23;20015;-84
2023/08/17 20:35:35;;;;;;;7.15;6.35;;;;;;;;;;6098265;23;20023;-84
2023/08/17 20:38:01;;;;;;;8.93;6.60;;;;;;;;;;6108019;23;20022;-84
2023/08/17 20:40:27;;;;;;;8.32;6.28;;;;;;;;;;6103129;23;20089;-84
2023/08/17 20:42:59;;;;;;;6.82;6.13;;;;;;;;;;6099157;23;20026;-84
2023/08/17 20:45:28;;;;;;;7.40;5.88;;;;;;;;;;6097115;23;20022;-84
2023/08/17 20:47:54;;;;;;;8.75;6.63;;;;;;;;;;6071171;23;20019;-84
2023/08/17 20:50:20;;;;;;;7.78;6.30;;;;;;;;;;6095455;23;20018;-84
2023/08/17 20:52:47;;;;;;;7.30;5.90;;;;;;;;;;6097006;23;20018;-83
2023/08/17 20:55:16;;;;;;;6.53;5.57;;;;;;;;;;6096177;23;20026;-84
2023/08/17 20:57:42;;;;;;;7.30;5.50;;;;;;;;;;6095285;23;20018;-84
2023/08/17 21:00:09;;;;;;;6.68;5.60;;;;;;;;;;6097925;23;20018;-83
2023/08/17 21:02:35;;;;;;;6.13;5.10;;;;;;;;;;6095591;23;20015;-83
2023/08/17 21:05:02;;;;;;;6.40;4.82;;;;;;;;;;6097976;23;20018;-83
2023/08/17 21:07:28;;;;;;;5.70;5.10;;;;;;;;;;6097053;23;20018;-83
2023/08/17 21:09:54;;;;;;;5.82;4.80;;;;;;;;;;6095810;23;20023;-83
2023/08/17 21:12:20;;;;;;;6.05;4.88;;;;;;;;;;6095186;23;20022;-84
2023/08/17 21:14:49;;;;;;;6.30;5.13;;;;;;;;;;6097101;23;20033;-83
2023/08/17 21:17:15;;;;;;;7.30;5.50;;;;;;;;;;6095738;23;20076;-84
2023/08/17 21:19:42;;;;;;;5.05;4.55;;;;;;;;;;6096675;23;20471;-83
2023/08/17 21:22:08;;;;;;;6.65;5.00;;;;;;;;;;6097307;23;20094;-83
2023/08/17 21:24:34;;;;;;;5.82;4.45;;;;;;;;;;6094452;23;20455;-84
2023/08/17 21:27:00;;;;;;;5.53;4.80;;;;;;;;;;6071313;23;20015;-83
2023/08/17 21:29:26;;;;;;;5.35;4.75;;;;;;;;;;6098608;23;20033;-83
2023/08/17 21:31:52;;;;;;;5.32;4.78;;;;;;;;;;6096691;23;20406;-84
2023/08/17 21:34:19;;;;;;;6.28;4.65;;;;;;;;;;6097323;23;20050;-84
2023/08/17 21:36:45;;;;;;;6.45;4.88;;;;;;;;;;6098235;23;20025;-84
2023/08/17 21:39:14;;;;;;;5.22;4.35;;;;;;;;;;6097384;23;20058;-84
2023/08/17 21:41:40;;;;;;;5.13;4.63;;;;;;;;;;6098698;23;20018;-84
2023/08/17 21:44:07;;;;;;;5.80;4.45;;;;;;;;;;6073064;23;20057;-84
2023/08/17 21:46:33;;;;;;;5.50;4.55;;;;;;;;;;6098879;23;20026;-83
2023/08/17 21:48:59;;;;;;;5.15;4.45;;;;;;;;;;6096553;23;20101;-84
2023/08/17 21:51:25;;;;;;;6.30;4.60;;;;;;;;;;6097741;23;20101;-83
2023/08/17 21:53:51;;;;;;;5.63;5.00;;;;;;;;;;6099052;23;20355;-83
2023/08/17 21:56:17;;;;;;;5.70;5.13;;;;;;;;;;6098744;23;20014;-84
2023/08/17 21:58:45;;;;;;;6.30;5.22;;;;;;;;;;6098471;23;20065;-84
2023/08/17 22:01:17;;;;;;;6.50;5.05;;;;;;;;;;6098486;23;20447;-84
2023/08/17 22:03:46;;;;;;;7.10;5.20;;;;;;;;;;6097051;23;20070;-83
2023/08/17 22:06:12;;;;;;;6.20;4.78;;;;;;;;;;6073013;23;20022;-83
2023/08/17 22:08:38;;;;;;;5.90;5.10;;;;;;;;;;6097613;23;20030;-83
2023/08/17 22:11:04;;;;;;;6.05;5.05;;;;;;;;;;6099476;23;20057;-83
2023/08/17 22:13:30;;;;;;;6.25;5.57;;;;;;;;;;6099343;23;20368;-84
2023/08/17 22:15:56;;;;;;;6.45;5.13;;;;;;;;;;6097574;23;20041;-83
2023/08/17 22:18:22;;;;;;;6.75;4.97;;;;;;;;;;6072556;23;20018;-84
2023/08/17 22:20:49;;;;;;;5.10;4.60;;;;;;;;;;6097683;23;20030;-84
2023/08/17 22:23:15;;;;;;;5.10;4.50;;;;;;;;;;6098161;23;20018;-83
2023/08/17 22:25:41;;;;;;;6.47;4.50;;;;;;;;;;6098791;23;20089;-83
2023/08/17 22:28:07;;;;;;;5.00;4.45;;;;;;;;;;6098147;23;20128;-84
2023/08/17 22:30:33;;;;;;;5.80;4.10;;;;;;;;;;6096507;23;20025;-84
2023/08/17 22:32:59;;;;;;;5.35;4.32;;;;;;;;;;6099070;23;20089;-83
2023/08/17 22:35:25;;;;;;;4.53;4.00;;;;;;;;;;6096612;23;20049;-83
2023/08/17 22:37:54;;;;;;;5.55;4.13;;;;;;;;;;6096995;23;20051;-84
2023/08/17 22:40:23;;;;;;;4.63;3.92;;;;;;;;;;6098166;23;20019;-83
2023/08/17 22:42:49;;;;;;;6.20;3.83;;;;;;;;;;6101401;23;20074;-83
2023/08/17 22:45:15;;;;;;;4.82;4.00;;;;;;;;;;6105866;23;20022;-84
2023/08/17 22:47:41;;;;;;;6.43;3.88;;;;;;;;;;6106559;23;20029;-84
2023/08/17 22:50:07;;;;;;;5.55;3.47;;;;;;;;;;6106393;23;20029;-84
2023/08/17 22:52:33;;;;;;;4.38;3.70;;;;;;;;;;6096802;23;20029;-83
2023/08/17 22:55:00;;;;;;;4.40;3.28;;;;;;;;;;6098347;23;20022;-83
2023/08/17 22:57:26;;;;;;;3.47;3.15;;;;;;;;;;6096446;23;20094;-83
2023/08/17 22:59:52;;;;;;;5.55;3.53;;;;;;;;;;6096419;23;20424;-84
2023/08/17 23:02:18;;;;;;;3.78;3.38;;;;;;;;;;6096847;23;20014;-83
2023/08/17 23:04:44;;;;;;;4.55;3.40;;;;;;;;;;6097998;23;20266;-83
2023/08/17 23:07:10;;;;;;;3.97;3.10;;;;;;;;;;6096319;23;20018;-83
2023/08/17 23:09:39;;;;;;;4.35;3.63;;;;;;;;;;6096055;23;20054;-83
2023/08/17 23:12:08;;;;;;;4.47;3.78;;;;;;;;;;6096211;23;20026;-83
2023/08/17 23:14:34;;;;;;;4.10;3.70;;;;;;;;;;6095935;23;20135;-83
2023/08/17 23:17:00;;;;;;;4.05;3.53;;;;;;;;;;6096215;23;20056;-83
2023/08/17 23:19:27;;;;;;;4.57;3.58;;;;;;;;;;6096566;23;20495;-83
2023/08/17 23:21:53;;;;;;;3.92;3.53;;;;;;;;;;6098247;23;20018;-83
2023/08/17 23:24:19;;;;;;;4.07;3.58;;;;;;;;;;6095949;23;20018;-83
2023/08/17 23:26:45;;;;;;;4.72;3.65;;;;;;;;;;6095472;23;20024;-83
2023/08/17 23:29:11;;;;;;;4.30;3.90;;;;;;;;;;6071961;23;20019;-83
2023/08/17 23:31:37;;;;;;;4.85;4.05;;;;;;;;;;6097516;23;20030;-83
2023/08/17 23:34:07;;;;;;;5.22;4.15;;;;;;;;;;6098094;23;20022;-84
2023/08/17 23:36:33;;;;;;;4.25;3.85;;;;;;;;;;6096109;23;20448;-84
2023/08/17 23:39:01;;;;;;;5.22;4.00;;;;;;;;;;6097703;23;20026;-84
2023/08/17 23:41:28;;;;;;;5.78;3.70;;;;;;;;;;6098305;23;20482;-83
2023/08/17 23:43:54;;;;;;;5.18;4.22;;;;;;;;;;6096867;23;20518;-83
2023/08/17 23:46:20;;;;;;;5.40;4.22;;;;;;;;;;6096107;23;20110;-83
2023/08/17 23:48:52;;;;;;;7.63;4.35;;;;;;;;;;6096264;23;20022;-83
2023/08/17 23:51:21;;;;;;;4.97;4.00;;;;;;;;;;6096032;23;20089;-83
2023/08/17 23:53:47;;;;;;;6.38;4.63;;;;;;;;;;6097593;23;20014;-83
2023/08/17 23:56:13;;;;;;;6.65;4.70;;;;;;;;;;6096977;23;20022;-83
2023/08/17 23:58:39;;;;;;;5.78;4.85;;;;;;;;;;6095691;23;20015;-83
